Time;durP1;ratioP1;P1;durP2;ratioP2;P2;SDS_P1;SDS_P2;PMS_P1;PMS_P2;Temp;Humidity;BMP_temperature;BMP_pressure;BME280_temperature;BME280_humidity;BME280_pressure;Samples;Min_cycle;Max_cycle;Signal;HPM_P1;HPM_P2
2022/06/03 00:02:40;;;;;;;8.27;7.38;;;14.10;99.90;;;;;;5013334;28;20097;-80
2022/06/03 00:05:11;;;;;;;10.20;7.68;;;14.00;99.90;;;;;;5012034;28;20355;-80
2022/06/03 00:07:54;;;;;;;9.80;7.00;;;14.00;99.90;;;;;;5013013;28;20026;-80
2022/06/03 00:10:35;;;;;;;9.88;8.18;;;14.00;99.90;;;;;;5028094;28;20101;-80
2022/06/03 00:13:19;;;;;;;10.05;8.30;;;13.90;99.90;;;;;;5000125;28;20095;-80
2022/06/03 00:16:21;;;;;;;9.38;7.80;;;13.90;99.90;;;;;;5012909;28;20022;-80
2022/06/03 00:19:04;;;;;;;10.57;7.85;;;13.90;99.90;;;;;;5010967;28;20121;-80
2022/06/03 00:22:03;;;;;;;8.90;7.88;;;13.90;99.90;;;;;;5002459;28;20101;-79
2022/06/03 00:25:02;;;;;;;8.55;7.70;;;13.80;99.90;;;;;;5016541;28;20049;-80
2022/06/03 00:27:53;;;;;;;13.35;7.80;;;13.80;99.90;;;;;;5016658;28;20026;-80
2022/06/03 00:30:54;;;;;;;11.15;9.05;;;13.80;99.90;;;;;;5001729;28;20022;-80
2022/06/03 00:33:34;;;;;;;10.20;8.88;;;13.80;99.90;;;;;;5003087;28;20208;-80
2022/06/03 00:36:19;;;;;;;10.32;8.73;;;13.80;99.90;;;;;;5015283;28;20034;-79
2022/06/03 00:38:57;;;;;;;9.98;8.63;;;13.70;99.90;;;;;;5027652;28;20034;-82
2022/06/03 00:41:33;;;;;;;10.10;8.05;;;13.70;99.90;;;;;;5012249;28;20026;-82
2022/06/03 00:44:29;;;;;;;9.07;8.15;;;13.70;99.90;;;;;;4996033;28;20414;-82
2022/06/03 00:47:41;;;;;;;10.13;8.38;;;13.70;99.90;;;;;;4995765;28;20034;-82
2022/06/03 00:50:28;;;;;;;9.40;8.35;;;13.70;99.90;;;;;;4986427;28;20514;-82
2022/06/03 00:53:14;;;;;;;13.13;8.15;;;13.70;99.90;;;;;;5004813;28;20386;-82
2022/06/03 00:56:17;;;;;;;12.70;8.18;;;13.60;99.90;;;;;;5016352;28;20021;-81
2022/06/03 00:58:52;;;;;;;8.80;7.43;;;13.60;99.90;;;;;;5016541;28;20029;-82
2022/06/03 01:01:44;;;;;;;10.98;7.40;;;13.60;99.90;;;;;;5016392;28;20053;-82
2022/06/03 01:04:45;;;;;;;8.48;7.20;;;13.50;99.90;;;;;;5016513;28;20018;-82
2022/06/03 01:07:48;;;;;;;7.95;6.93;;;13.50;99.90;;;;;;4949615;28;20030;-82
2022/06/03 01:10:32;;;;;;;8.07;6.20;;;13.40;99.90;;;;;;5014768;28;20072;-82
2022/06/03 01:13:23;;;;;;;9.60;6.85;;;13.40;99.90;;;;;;4995335;28;20101;-82
2022/06/03 01:16:12;;;;;;;9.98;7.10;;;13.30;99.90;;;;;;5011390;28;20117;-82
2022/06/03 01:18:55;;;;;;;8.13;6.43;;;13.30;99.90;;;;;;4996105;28;20046;-82
2022/06/03 01:21:38;;;;;;;8.10;6.82;;;13.20;99.90;;;;;;5015299;28;20022;-81
2022/06/03 01:24:19;;;;;;;7.32;6.47;;;13.20;99.90;;;;;;5015996;28;20062;-81
2022/06/03 01:27:19;;;;;;;8.85;6.63;;;13.10;99.90;;;;;;4994947;28;20022;-82
2022/06/03 01:30:16;;;;;;;11.48;6.93;;;13.10;99.90;;;;;;5000546;28;20105;-81
2022/06/03 01:32:44;;;;;;;8.48;7.25;;;13.10;99.90;;;;;;5014352;28;20550;-82
2022/06/03 01:35:23;;;;;;;8.43;7.45;;;13.00;99.90;;;;;;5015568;28;20022;-81
2022/06/03 01:38:04;;;;;;;7.50;6.70;;;13.00;99.90;;;;;;5030937;28;20471;-82
2022/06/03 01:40:42;;;;;;;9.52;7.05;;;13.00;99.90;;;;;;5015525;28;20022;-81
2022/06/03 01:43:17;;;;;;;8.57;7.25;;;13.00;99.90;;;;;;5014157;28;20022;-81
2022/06/03 01:46:07;;;;;;;7.50;6.53;;;12.90;99.90;;;;;;4995989;28;20026;-82
2022/06/03 01:48:48;;;;;;;8.38;6.50;;;12.90;99.90;;;;;;4994548;28;20034;-82
2022/06/03 01:51:34;;;;;;;7.63;6.70;;;12.80;99.90;;;;;;5005284;28;20026;-81
2022/06/03 01:54:28;;;;;;;7.93;6.43;;;12.80;99.90;;;;;;5015686;28;20037;-81
2022/06/03 01:57:17;;;;;;;8.40;6.47;;;12.70;99.90;;;;;;5014431;28;20029;-82
2022/06/03 02:00:02;;;;;;;8.20;7.10;;;12.70;99.90;;;;;;5016244;28;20026;-82
2022/06/03 02:02:53;;;;;;;8.43;6.82;;;12.60;99.90;;;;;;5016351;28;20117;-82
2022/06/03 02:05:59;;;;;;;8.45;7.05;;;12.60;99.90;;;;;;5014855;28;20482;-82
2022/06/03 02:08:45;;;;;;;8.55;7.05;;;12.50;99.90;;;;;;5009202;28;20398;-82
2022/06/03 02:11:29;;;;;;;10.93;7.95;;;12.40;99.90;;;;;;5015111;28;20405;-82
2022/06/03 02:14:00;;;;;;;9.57;7.82;;;12.40;99.90;;;;;;5014996;28;20498;-82
2022/06/03 02:16:54;;;;;;;10.60;8.88;;;12.40;99.90;;;;;;5014298;28;20057;-81
2022/06/03 02:19:31;;;;;;;10.07;8.43;;;12.30;99.90;;;;;;5015349;28;20042;-82
2022/06/03 02:22:16;;;;;;;9.63;8.63;;;12.30;99.90;;;;;;5015554;28;20101;-82
2022/06/03 02:24:55;;;;;;;9.50;8.50;;;12.30;99.90;;;;;;5014169;28;20026;-82
2022/06/03 02:27:32;;;;;;;9.10;8.05;;;12.30;99.90;;;;;;5013700;28;20116;-81
2022/06/03 02:30:24;;;;;;;10.13;8.13;;;12.30;99.90;;;;;;5014885;28;20030;-82
2022/06/03 02:33:22;;;;;;;9.60;8.63;;;12.30;99.90;;;;;;5014894;28;20489;-82
2022/06/03 02:35:50;;;;;;;10.93;9.18;;;12.20;99.90;;;;;;5014552;28;20446;-82
2022/06/03 02:38:36;;;;;;;9.73;8.73;;;12.30;99.90;;;;;;5014678;28;20026;-82
2022/06/03 02:41:25;;;;;;;10.73;8.23;;;12.20;99.90;;;;;;5014446;28;20467;-80
2022/06/03 02:44:30;;;;;;;11.57;8.95;;;12.20;99.90;;;;;;5029113;28;20069;-80
2022/06/03 02:47:06;;;;;;;10.05;9.05;;;12.30;99.90;;;;;;5014437;28;20033;-80
2022/06/03 02:49:57;;;;;;;13.73;9.40;;;12.30;99.90;;;;;;5030208;28;20128;-80
2022/06/03 02:52:35;;;;;;;9.82;8.27;;;12.20;99.90;;;;;;5014126;28;20018;-80
2022/06/03 02:55:32;;;;;;;8.90;7.65;;;12.20;99.90;;;;;;5014121;28;20022;-81
2022/06/03 02:58:12;;;;;;;10.27;8.32;;;12.20;99.90;;;;;;5014516;28;20022;-80
2022/06/03 03:01:08;;;;;;;10.75;9.48;;;12.20;99.90;;;;;;5013930;28;20048;-81
2022/06/03 03:04:02;;;;;;;10.45;8.90;;;12.10;99.90;;;;;;5014221;28;20026;-80
2022/06/03 03:06:49;;;;;;;11.18;8.65;;;12.10;99.90;;;;;;5014121;28;20030;-81
2022/06/03 03:09:33;;;;;;;10.75;9.18;;;12.00;99.90;;;;;;5014394;28;20026;-81
2022/06/03 03:12:01;;;;;;;9.73;8.50;;;12.00;99.90;;;;;;5029202;28;20076;-80
2022/06/03 03:14:47;;;;;;;10.75;8.18;;;12.00;99.90;;;;;;5028886;28;20030;-81
2022/06/03 03:17:36;;;;;;;13.43;8.75;;;12.00;99.90;;;;;;5002984;28;20026;-81
2022/06/03 03:20:24;;;;;;;8.63;7.82;;;12.00;99.90;;;;;;5029487;28;20085;-80
2022/06/03 03:22:58;;;;;;;11.38;8.73;;;12.00;99.90;;;;;;5013761;28;20418;-80
2022/06/03 03:25:56;;;;;;;12.60;8.82;;;12.00;99.90;;;;;;5013854;28;20026;-81
2022/06/03 03:28:36;;;;;;;10.52;8.70;;;12.00;99.90;;;;;;5013748;28;20101;-80
2022/06/03 03:32:11;;;;;;;12.80;9.20;;;12.00;99.90;;;;;;5028909;28;20176;-80
2022/06/03 03:35:01;;;;;;;11.10;8.38;;;12.00;99.90;;;;;;4953118;29;20165;-81
2022/06/03 03:38:08;;;;;;;11.55;9.40;;;12.00;99.90;;;;;;5010388;28;20057;-81
2022/06/03 03:40:52;;;;;;;10.20;8.82;;;12.00;99.90;;;;;;5012631;28;20030;-81
2022/06/03 03:43:26;;;;;;;13.02;9.80;;;12.00;99.90;;;;;;5012513;28;20026;-81
2022/06/03 03:46:27;;;;;;;11.18;9.23;;;12.00;99.90;;;;;;5012305;28;20057;-81
2022/06/03 03:49:09;;;;;;;11.32;9.50;;;12.00;99.90;;;;;;4937167;29;20126;-81
2022/06/03 03:52:10;;;;;;;14.05;10.55;;;12.10;99.90;;;;;;5004854;28;20502;-81
2022/06/03 03:54:45;;;;;;;9.40;8.40;;;12.10;99.90;;;;;;5013853;28;20441;-81
2022/06/03 03:57:48;;;;;;;10.50;9.40;;;12.10;99.90;;;;;;5012851;28;20022;-81
2022/06/03 04:00:36;;;;;;;10.02;8.32;;;12.10;99.90;;;;;;4994038;28;20038;-81
2022/06/03 04:03:43;;;;;;;10.45;8.68;;;12.10;99.90;;;;;;5016236;28;20022;-82
2022/06/03 04:06:20;;;;;;;9.70;8.13;;;12.10;99.90;;;;;;4998147;28;20033;-81
2022/06/03 04:09:10;;;;;;;9.93;8.10;;;12.20;99.90;;;;;;4997742;28;20096;-82
2022/06/03 04:11:53;;;;;;;14.02;8.98;;;12.20;99.90;;;;;;5012827;28;20479;-81
2022/06/03 04:14:41;;;;;;;10.27;8.48;;;12.20;99.90;;;;;;5012626;28;20022;-81
2022/06/03 04:17:07;;;;;;;10.43;8.70;;;12.30;99.90;;;;;;5013006;28;20463;-81
2022/06/03 04:20:00;;;;;;;9.77;7.68;;;12.30;99.90;;;;;;5016958;28;20057;-81
2022/06/03 04:22:54;;;;;;;9.82;7.90;;;12.30;99.90;;;;;;5017475;28;20018;-80
2022/06/03 04:25:53;;;;;;;9.70;7.68;;;12.30;99.90;;;;;;5017392;28;20032;-81
2022/06/03 04:28:30;;;;;;;10.07;7.53;;;12.40;99.90;;;;;;5017169;28;20026;-81
2022/06/03 04:31:05;;;;;;;9.13;7.55;;;12.50;99.90;;;;;;5016926;28;20376;-83
2022/06/03 04:33:34;;;;;;;9.38;8.30;;;12.60;99.90;;;;;;5013837;28;20025;-78
2022/06/03 04:36:26;;;;;;;11.10;8.70;;;12.70;99.90;;;;;;5016032;28;20097;-78
2022/06/03 04:39:30;;;;;;;12.40;9.57;;;12.80;99.90;;;;;;5011732;28;20031;-78
2022/06/03 04:42:13;;;;;;;15.32;9.65;;;13.00;99.90;;;;;;5007875;28;20025;-78
2022/06/03 04:44:45;;;;;;;12.68;10.18;;;13.10;99.90;;;;;;5005920;28;20105;-78
2022/06/03 04:47:29;;;;;;;12.27;9.63;;;13.20;99.90;;;;;;5014011;28;20022;-78
2022/06/03 04:50:28;;;;;;;12.00;8.88;;;13.40;99.90;;;;;;5004655;28;20022;-78
2022/06/03 04:53:27;;;;;;;12.25;8.43;;;13.60;99.90;;;;;;5014712;28;20471;-78
2022/06/03 04:56:36;;;;;;;10.05;8.63;;;13.80;99.90;;;;;;5009969;28;20081;-78
2022/06/03 04:59:39;;;;;;;10.13;8.60;;;14.00;99.90;;;;;;5010008;28;20028;-79
2022/06/03 05:02:42;;;;;;;12.98;9.25;;;14.20;99.90;;;;;;5020432;28;20046;-79
2022/06/03 05:05:17;;;;;;;10.70;8.68;;;14.40;99.90;;;;;;5026957;28;20025;-72
2022/06/03 05:08:00;;;;;;;10.30;7.82;;;14.50;99.90;;;;;;5015055;28;20025;-72
2022/06/03 05:10:38;;;;;;;10.80;8.43;;;14.60;99.90;;;;;;5014010;28;20097;-72
2022/06/03 05:13:22;;;;;;;9.05;8.13;;;14.80;99.90;;;;;;5010231;28;20364;-74
2022/06/03 05:16:05;;;;;;;11.05;7.43;;;14.90;99.90;;;;;;5009794;28;20030;-79
2022/06/03 05:18:50;;;;;;;9.90;6.68;;;15.00;99.90;;;;;;5009725;28;20399;-79
2022/06/03 05:21:36;;;;;;;10.98;6.78;;;15.00;99.90;;;;;;5030929;28;20032;-79
2022/06/03 05:24:39;;;;;;;8.55;6.97;;;15.10;99.90;;;;;;5022803;28;20022;-79
2022/06/03 05:27:26;;;;;;;9.38;6.22;;;15.20;99.90;;;;;;5005579;28;20526;-80
2022/06/03 05:30:18;;;;;;;8.57;5.93;;;15.40;99.90;;;;;;5030499;28;20018;-79
2022/06/03 05:32:53;;;;;;;10.48;7.15;;;15.50;99.90;;;;;;5012945;28;20134;-82
2022/06/03 05:35:40;;;;;;;8.85;7.93;;;15.60;99.90;;;;;;5000323;28;20474;-82
2022/06/03 05:38:43;;;;;;;10.32;8.20;;;15.80;99.90;;;;;;5014155;28;20550;-82
2022/06/03 05:45:01;;;;;;;9.57;7.18;;;16.00;99.90;;;;;;5015375;28;20437;-82
2022/06/03 05:47:39;;;;;;;8.52;6.97;;;16.10;99.90;;;;;;5012604;28;20121;-82
2022/06/03 05:50:07;;;;;;;13.13;5.80;;;16.30;99.90;;;;;;5010919;28;20034;-82
2022/06/03 05:52:54;;;;;;;10.95;6.00;;;16.40;99.90;;;;;;4996372;28;20114;-82
2022/06/03 05:55:22;;;;;;;7.15;5.30;;;16.60;99.90;;;;;;5010770;28;20030;-82
2022/06/03 05:58:18;;;;;;;9.43;4.60;;;16.80;99.90;;;;;;4995639;28;20161;-82
2022/06/03 06:00:50;;;;;;;;;;;17.00;99.90;;;;;;4996306;28;20039;-82
2022/06/03 06:03:25;;;;;;;7.32;4.35;;;17.20;99.90;;;;;;5010635;28;19906;-82
2022/06/03 06:05:57;;;;;;;6.35;4.70;;;17.40;99.90;;;;;;5010598;28;20030;-82
2022/06/03 06:08:40;;;;;;;8.40;4.32;;;17.60;99.90;;;;;;4995462;28;20026;-82
2022/06/03 06:11:32;;;;;;;6.30;3.60;;;17.90;99.90;;;;;;5010556;28;20109;-82
2022/06/03 06:14:10;;;;;;;7.00;3.90;;;18.20;99.90;;;;;;4955616;28;20109;-82
2022/06/03 06:16:42;;;;;;;9.95;3.90;;;18.40;99.90;;;;;;4995418;28;20114;-82
2022/06/03 06:19:36;;;;;;;7.88;3.83;;;18.50;99.90;;;;;;4994510;28;20188;-82
2022/06/03 06:22:34;;;;;;;7.22;3.65;;;18.50;99.90;;;;;;5001790;28;20018;-82
2022/06/03 06:25:12;;;;;;;8.32;3.72;;;18.50;99.90;;;;;;5007022;28;20117;-82
2022/06/03 06:28:03;;;;;;;4.82;3.60;;;18.60;99.90;;;;;;5014977;28;20030;-82
2022/06/03 06:30:49;;;;;;;6.47;3.78;;;18.60;99.90;;;;;;5014551;28;20108;-82
2022/06/03 06:33:29;;;;;;;5.40;3.83;;;18.70;99.90;;;;;;5014533;28;20374;-82
2022/06/03 06:36:32;;;;;;;7.63;4.57;;;18.80;99.90;;;;;;5014474;28;20423;-82
2022/06/03 06:39:40;;;;;;;6.15;4.50;;;19.10;99.90;;;;;;5014654;28;20022;-82
2022/06/03 06:42:27;;;;;;;5.45;4.28;;;19.10;99.90;;;;;;5014458;28;20395;-83
2022/06/03 06:45:19;;;;;;;5.07;3.78;;;19.10;99.90;;;;;;5014490;28;20032;-82
2022/06/03 06:48:02;;;;;;;7.80;4.03;;;19.00;99.90;;;;;;5014475;28;20034;-83
2022/06/03 06:50:46;;;;;;;4.82;3.65;;;18.90;99.90;;;;;;5014267;28;20026;-82
2022/06/03 06:53:14;;;;;;;5.53;3.38;;;18.90;99.90;;;;;;5014562;28;20068;-82
2022/06/03 06:56:17;;;;;;;6.22;3.65;;;18.90;99.90;;;;;;5014652;28;20037;-82
2022/06/03 06:59:03;;;;;;;6.55;3.30;;;18.90;99.90;;;;;;4994848;28;20060;-83
2022/06/03 07:01:45;;;;;;;6.85;3.90;;;19.00;99.90;;;;;;5012982;28;20018;-83
2022/06/03 07:04:18;;;;;;;4.93;3.75;;;19.00;99.90;;;;;;5012617;28;20033;-81
2022/06/03 07:06:58;;;;;;;10.05;4.13;;;19.10;99.90;;;;;;5014218;28;20026;-80
2022/06/03 07:09:49;;;;;;;7.13;3.42;;;19.10;99.90;;;;;;5013984;28;20041;-81
2022/06/03 07:12:18;;;;;;;5.72;3.38;;;19.20;99.90;;;;;;5014341;28;20026;-81
2022/06/03 07:15:09;;;;;;;3.72;2.90;;;19.30;99.90;;;;;;5012893;28;20466;-82
2022/06/03 07:20:53;;;;;;;7.43;2.83;;;19.60;99.90;;;;;;5014170;28;20037;-81
2022/06/03 07:23:26;;;;;;;3.33;2.58;;;19.80;99.90;;;;;;5013748;28;20061;-82
2022/06/03 07:26:37;;;;;;;5.38;3.03;;;19.90;99.90;;;;;;5014041;28;20084;-81
2022/06/03 07:29:23;;;;;;;5.25;2.88;;;20.00;99.90;;;;;;5005332;28;20088;-81
2022/06/03 07:31:58;;;;;;;6.03;2.90;;;20.10;99.90;;;;;;5013830;28;20480;-82
2022/06/03 07:34:29;;;;;;;4.22;2.67;;;20.10;99.90;;;;;;5013518;28;20018;-82
2022/06/03 07:37:07;;;;;;;3.53;2.50;;;20.20;99.90;;;;;;5013518;28;20513;-81
2022/06/03 07:39:39;;;;;;;4.20;2.67;;;20.30;99.90;;;;;;5013844;28;20367;-82
2022/06/03 07:42:15;;;;;;;3.15;2.40;;;20.40;99.90;;;;;;5013765;28;20026;-82
2022/06/03 07:44:46;;;;;;;6.63;3.60;;;20.50;99.90;;;;;;5013427;28;20029;-81
2022/06/03 07:47:15;;;;;;;8.10;2.85;;;20.60;99.90;;;;;;5012419;28;20091;-81
2022/06/03 07:49:57;;;;;;;4.95;2.80;;;20.70;99.90;;;;;;5013605;28;20097;-81
2022/06/03 07:52:43;;;;;;;10.45;3.80;;;20.70;99.90;;;;;;5013452;28;20018;-81
2022/06/03 07:55:16;;;;;;;8.85;4.32;;;20.80;99.90;;;;;;5012019;28;20052;-81
2022/06/03 07:57:50;;;;;;;9.30;4.07;;;21.00;99.90;;;;;;5013625;28;20033;-81
2022/06/03 08:00:22;;;;;;;8.68;4.22;;;21.00;99.90;;;;;;5013485;28;20046;-81
2022/06/03 08:03:02;;;;;;;7.75;4.30;;;21.00;99.90;;;;;;5013128;28;20052;-79
2022/06/03 08:05:29;;;;;;;8.50;4.15;;;21.00;99.90;;;;;;5010955;28;20450;-79
2022/06/03 08:11:05;;;;;;;6.22;4.45;;;21.10;99.90;;;;;;5000125;28;20047;-79
2022/06/03 08:13:39;;;;;;;;;;;21.10;99.90;;;;;;5028488;28;20025;-80
2022/06/03 08:16:10;;;;;;;7.05;4.38;;;21.20;99.90;;;;;;4992082;28;19909;-79
2022/06/03 08:18:42;;;;;;;7.43;3.88;;;21.20;99.90;;;;;;4993310;28;20505;-79
2022/06/03 08:21:13;;;;;;;4.57;3.58;;;21.30;99.90;;;;;;4992657;28;20113;-79
2022/06/03 08:23:43;;;;;;;6.63;4.32;;;21.40;99.90;;;;;;5006575;28;20459;-80
2022/06/03 08:26:22;;;;;;;7.00;3.70;;;21.50;99.90;;;;;;5012714;28;20419;-80
2022/06/03 08:28:57;;;;;;;7.53;3.42;;;21.60;99.90;;;;;;5012895;28;20037;-80
2022/06/03 08:31:24;;;;;;;6.00;3.85;;;21.60;99.90;;;;;;5012957;28;20029;-80
2022/06/03 08:33:58;;;;;;;14.23;4.05;;;21.80;99.90;;;;;;5028112;28;20383;-80
2022/06/03 08:36:27;;;;;;;7.90;3.90;;;21.90;99.90;;;;;;5012240;28;20049;-80
2022/06/03 08:39:00;;;;;;;7.70;3.80;;;21.90;99.90;;;;;;5029353;28;20060;-80
2022/06/03 08:41:46;;;;;;;7.05;3.33;;;21.90;99.90;;;;;;5015295;28;20037;-80
2022/06/03 08:44:30;;;;;;;7.38;3.47;;;22.00;99.90;;;;;;5016891;28;20021;-80
2022/06/03 08:47:20;;;;;;;14.82;3.80;;;22.10;99.90;;;;;;5018828;28;20037;-80
2022/06/03 08:50:05;;;;;;;9.77;3.42;;;22.10;99.90;;;;;;5018800;28;20435;-80
2022/06/03 08:52:54;;;;;;;22.60;3.50;;;22.20;99.90;;;;;;5019154;28;20101;-80
2022/06/03 08:55:44;;;;;;;5.30;3.03;;;22.30;99.90;;;;;;5017370;28;20062;-79
2022/06/03 08:58:41;;;;;;;6.50;2.58;;;22.50;99.90;;;;;;5034699;28;20022;-80
2022/06/03 09:01:28;;;;;;;5.70;2.78;;;22.60;99.90;;;;;;5001042;28;20489;-80
2022/06/03 09:04:23;;;;;;;7.95;2.80;;;22.80;99.90;;;;;;5034638;28;20022;-79
2022/06/03 09:06:58;;;;;;;3.92;2.70;;;22.80;99.90;;;;;;5017467;28;20026;-79
2022/06/03 09:09:32;;;;;;;9.20;2.70;;;23.00;99.90;;;;;;5016832;28;20018;-79
2022/06/03 09:12:28;;;;;;;5.85;2.95;;;23.10;99.90;;;;;;5013377;28;20038;-78
2022/06/03 09:14:56;;;;;;;6.53;3.13;;;23.20;99.90;;;;;;5010169;28;20512;-79
2022/06/03 09:17:25;;;;;;;7.05;2.90;;;23.20;99.90;;;;;;5007899;28;20117;-78
2022/06/03 09:19:53;;;;;;;6.65;3.05;;;23.40;99.90;;;;;;5005402;28;20026;-77
2022/06/03 09:22:28;;;;;;;7.93;2.72;;;23.60;99.90;;;;;;5022824;28;20118;-77
2022/06/03 09:24:58;;;;;;;5.20;2.90;;;23.60;99.90;;;;;;5008497;28;20497;-76
2022/06/03 09:27:27;;;;;;;6.63;3.30;;;23.80;99.90;;;;;;5024096;28;20088;-76
2022/06/03 09:29:55;;;;;;;6.80;2.80;;;24.00;99.90;;;;;;5008385;28;20028;-76
2022/06/03 09:32:23;;;;;;;5.97;3.05;;;24.10;99.90;;;;;;5009415;28;20029;-76
2022/06/03 09:34:53;;;;;;;4.63;2.28;;;24.30;99.90;;;;;;5007809;28;20021;-76
2022/06/03 09:37:24;;;;;;;7.95;2.53;;;24.60;99.90;;;;;;5009088;28;20036;-76
2022/06/03 09:39:52;;;;;;;3.90;2.30;;;24.80;99.90;;;;;;5009062;28;20041;-76
2022/06/03 09:42:20;;;;;;;3.72;2.35;;;25.10;99.90;;;;;;5009453;28;20047;-77
2022/06/03 09:44:48;;;;;;;7.47;2.78;;;25.40;99.90;;;;;;5009262;28;20802;-77
2022/06/03 09:47:18;;;;;;;6.65;2.40;;;25.70;99.90;;;;;;5009678;28;20475;-77
2022/06/03 09:49:50;;;;;;;11.20;2.72;;;26.00;99.90;;;;;;5008715;28;20087;-76
2022/06/03 09:52:19;;;;;;;5.55;2.40;;;26.30;99.90;;;;;;5008834;28;20101;-77
2022/06/03 09:54:47;;;;;;;5.85;2.60;;;26.50;99.90;;;;;;5008614;28;20025;-76
2022/06/03 09:57:25;;;;;;;6.38;2.50;;;26.60;99.90;;;;;;5007600;28;20041;-76
2022/06/03 10:00:14;;;;;;;3.78;2.70;;;26.70;99.90;;;;;;5008804;28;20501;-76
2022/06/03 10:02:58;;;;;;;3.80;2.42;;;26.70;99.90;;;;;;5009915;28;20026;-78
2022/06/03 10:05:46;;;;;;;6.55;2.47;;;26.90;99.90;;;;;;5006107;28;20176;-76
2022/06/03 10:08:12;;;;;;;5.00;2.55;;;27.10;99.90;;;;;;5011283;28;20108;-83
2022/06/03 10:13:23;;;;;;;;;;;27.50;99.90;;;;;;5011842;28;20037;-76
2022/06/03 10:15:55;;;;;;;5.03;2.42;;;27.50;99.90;;;;;;5026228;28;19913;-76
2022/06/03 10:18:30;;;;;;;7.20;2.58;;;27.60;99.90;;;;;;5008480;28;20042;-76
2022/06/03 10:21:18;;;;;;;6.32;2.45;;;27.60;99.90;;;;;;5011342;28;20021;-76
2022/06/03 10:23:46;;;;;;;7.07;2.50;;;27.70;99.90;;;;;;5011379;28;20048;-77
2022/06/03 10:26:19;;;;;;;3.08;2.10;;;27.80;99.90;;;;;;5010843;28;20022;-76
2022/06/03 10:28:50;;;;;;;4.72;2.20;;;27.90;99.90;;;;;;5026399;28;20379;-77
2022/06/03 10:31:18;;;;;;;4.88;1.88;;;28.10;99.90;;;;;;5011437;28;20551;-76
2022/06/03 10:33:56;;;;;;;6.90;2.10;;;28.10;99.90;;;;;;5010998;28;20034;-76
2022/06/03 10:36:27;;;;;;;4.78;2.15;;;28.20;99.90;;;;;;5011042;28;20026;-77
2022/06/03 10:38:53;;;;;;;3.42;2.20;;;28.30;99.90;;;;;;5005615;28;20019;-76
2022/06/03 10:41:20;;;;;;;2.83;2.08;;;28.20;99.90;;;;;;4999576;28;20101;-76
2022/06/03 10:43:48;;;;;;;6.32;2.00;;;28.20;99.90;;;;;;5005350;28;20037;-76
2022/06/03 10:46:19;;;;;;;5.65;1.90;;;28.40;99.90;;;;;;5008372;28;20041;-76
2022/06/03 10:48:46;;;;;;;6.28;1.90;;;28.30;99.90;;;;;;5012629;28;20088;-74
2022/06/03 10:51:19;;;;;;;4.97;1.95;;;28.40;99.90;;;;;;5010979;28;20044;-75
2022/06/03 11:02:28;;;;;;;3.45;1.70;;;28.90;99.90;;;;;;5006524;28;20834;-75
2022/06/03 11:05:14;;;;;;;3.78;2.00;;;28.90;99.90;;;;;;5013346;28;20030;-84
2022/06/03 11:07:41;;;;;;;5.63;2.08;;;28.80;99.90;;;;;;5013418;28;20018;-74
2022/06/03 11:10:14;;;;;;;5.15;1.80;;;28.60;99.90;;;;;;5012969;28;20773;-74
2022/06/03 11:12:42;;;;;;;3.58;1.77;;;28.60;99.90;;;;;;5011631;28;20025;-76
2022/06/03 11:15:33;;;;;;;2.85;1.85;;;28.50;99.90;;;;;;5007591;28;20391;-76
2022/06/03 11:18:11;;;;;;;3.95;1.85;;;28.60;99.90;;;;;;5002203;28;20053;-76
2022/06/03 11:20:39;;;;;;;6.65;1.77;;;28.80;99.90;;;;;;5005792;28;20026;-74
2022/06/03 11:23:07;;;;;;;4.25;2.03;;;29.10;99.90;;;;;;5012319;28;20022;-74
2022/06/03 11:25:38;;;;;;;2.67;2.10;;;29.30;99.90;;;;;;5012537;28;20029;-75
2022/06/03 11:28:20;;;;;;;5.45;2.35;;;29.10;99.90;;;;;;5012386;28;20026;-74
2022/06/03 11:30:57;;;;;;;7.65;2.13;;;29.40;99.90;;;;;;5006508;28;20026;-76
2022/06/03 11:33:38;;;;;;;3.70;2.10;;;29.40;99.90;;;;;;5003483;28;20117;-76
2022/06/03 11:36:06;;;;;;;5.38;2.00;;;29.50;99.90;;;;;;5004336;28;20026;-76
2022/06/03 11:38:41;;;;;;;3.03;2.10;;;29.60;99.90;;;;;;5003701;28;20053;-76
2022/06/03 11:41:26;;;;;;;5.38;2.10;;;29.60;99.90;;;;;;5004561;28;20030;-76
2022/06/03 11:44:00;;;;;;;3.85;2.30;;;29.80;99.90;;;;;;5004029;28;20324;-76
2022/06/03 11:46:34;;;;;;;3.45;2.42;;;30.00;99.90;;;;;;5003071;28;20034;-76
2022/06/03 11:49:00;;;;;;;2.83;2.10;;;30.00;99.90;;;;;;5004804;28;20017;-76
2022/06/03 11:51:26;;;;;;;3.80;2.47;;;29.90;99.90;;;;;;5019586;28;20030;-76
2022/06/03 11:53:52;;;;;;;2.88;2.45;;;29.70;99.90;;;;;;5005342;28;20030;-76
2022/06/03 11:56:25;;;;;;;6.00;2.55;;;29.50;99.90;;;;;;5004946;28;20045;-77
2022/06/03 11:59:12;;;;;;;7.30;2.03;;;29.20;99.90;;;;;;5019281;28;20141;-76
2022/06/03 12:01:48;;;;;;;3.53;2.25;;;29.20;99.90;;;;;;5003211;28;20795;-76
2022/06/03 12:04:32;;;;;;;5.40;2.70;;;29.10;99.90;;;;;;5019644;28;20049;-76
2022/06/03 12:07:00;;;;;;;4.70;2.00;;;29.00;99.90;;;;;;5005631;28;20041;-76
2022/06/03 12:09:34;;;;;;;4.07;2.10;;;28.80;99.90;;;;;;5000979;28;20041;-76
2022/06/03 12:14:49;;;;;;;2.50;2.03;;;29.30;99.90;;;;;;5002461;28;20310;-76
2022/06/03 12:17:15;;;;;;;4.65;2.20;;;29.40;99.90;;;;;;5007896;28;20014;-76
2022/06/03 12:19:44;;;;;;;5.35;2.60;;;29.40;99.90;;;;;;5009668;28;20033;-76
2022/06/03 12:22:28;;;;;;;4.50;2.20;;;29.20;99.90;;;;;;5013098;28;20092;-73
2022/06/03 12:24:55;;;;;;;4.78;2.50;;;29.20;99.90;;;;;;5014617;28;20466;-73
2022/06/03 12:27:50;;;;;;;4.00;2.33;;;29.00;99.90;;;;;;5014930;28;20411;-73
2022/06/03 12:30:21;;;;;;;2.40;2.13;;;28.70;99.90;;;;;;5011998;28;20429;-73
2022/06/03 12:33:02;;;;;;;4.60;2.58;;;28.40;99.90;;;;;;5013259;28;20029;-73
2022/06/03 12:35:45;;;;;;;3.55;2.80;;;28.50;99.90;;;;;;5012427;28;20191;-73
2022/06/03 12:38:19;;;;;;;4.43;2.60;;;28.30;99.90;;;;;;5012398;28;20028;-73
2022/06/03 12:40:47;;;;;;;5.47;2.60;;;28.20;99.90;;;;;;5014628;28;20022;-73
2022/06/03 12:43:51;;;;;;;12.65;3.35;;;28.10;99.90;;;;;;5028294;28;20649;-73
2022/06/03 12:47:15;;;;;;;3.45;2.45;;;28.10;99.90;;;;;;5013452;28;20026;-73
2022/06/03 12:49:44;;;;;;;8.77;2.40;;;28.00;99.90;;;;;;4953794;29;20536;-73
2022/06/03 12:52:21;;;;;;;4.65;2.50;;;27.90;99.90;;;;;;5011333;28;20414;-73
2022/06/03 12:54:53;;;;;;;3.72;2.47;;;27.70;99.90;;;;;;5014460;28;20383;-73
2022/06/03 12:57:35;;;;;;;5.78;2.67;;;27.60;99.90;;;;;;5013014;28;20041;-73
2022/06/03 13:00:14;;;;;;;6.43;2.60;;;27.50;99.90;;;;;;5014903;28;20022;-73
2022/06/03 13:02:52;;;;;;;7.57;2.92;;;27.40;99.90;;;;;;5014135;28;20022;-73
2022/06/03 13:05:34;;;;;;;6.13;3.28;;;27.20;99.90;;;;;;5011199;28;20018;-73
2022/06/03 13:08:04;;;;;;;7.25;3.10;;;27.00;99.90;;;;;;5027833;28;20049;-73
2022/06/03 13:10:51;;;;;;;8.32;3.03;;;27.00;99.90;;;;;;5014339;28;20029;-73
2022/06/03 13:13:20;;;;;;;6.72;2.67;;;26.90;99.90;;;;;;5012132;28;20045;-73
2022/06/03 13:15:49;;;;;;;6.75;3.05;;;26.90;99.90;;;;;;5013913;28;20112;-73
2022/06/03 13:18:34;;;;;;;5.70;3.80;;;26.80;99.90;;;;;;5013379;28;20501;-73
2022/06/03 13:21:00;;;;;;;6.30;3.47;;;26.80;99.90;;;;;;5014208;28;20022;-73
2022/06/03 13:23:45;;;;;;;7.38;2.80;;;26.70;99.90;;;;;;5013721;28;20018;-73
2022/06/03 13:26:22;;;;;;;5.25;2.50;;;26.60;99.90;;;;;;5012899;28;20022;-73
2022/06/03 13:28:51;;;;;;;3.13;2.50;;;26.60;99.90;;;;;;5012355;28;20076;-73
2022/06/03 13:31:20;;;;;;;8.27;3.50;;;26.50;99.90;;;;;;5012994;28;20022;-73
2022/06/03 13:34:07;;;;;;;7.13;2.97;;;26.30;99.90;;;;;;5028769;28;20026;-73
2022/06/03 13:36:34;;;;;;;6.07;2.72;;;26.20;99.90;;;;;;5012410;28;20096;-73
2022/06/03 13:39:00;;;;;;;2.95;2.53;;;26.10;99.90;;;;;;5011914;28;20073;-73
2022/06/03 13:44:51;;;;;;;3.35;2.50;;;25.90;99.90;;;;;;5014208;28;20080;-73
2022/06/03 13:47:17;;;;;;;;;;;25.80;99.90;;;;;;4999477;28;20129;-73
2022/06/03 13:49:49;;;;;;;3.45;2.70;;;25.80;99.90;;;;;;5013862;28;19952;-73
2022/06/03 13:52:22;;;;;;;4.00;2.60;;;25.70;99.90;;;;;;5013836;28;20072;-73
2022/06/03 13:54:52;;;;;;;5.57;2.63;;;25.70;99.90;;;;;;5013874;28;20447;-73
2022/06/03 13:57:37;;;;;;;6.60;2.50;;;25.60;99.90;;;;;;5010129;28;20044;-73
2022/06/03 14:00:13;;;;;;;6.03;2.60;;;25.60;99.90;;;;;;5027576;28;20030;-73
2022/06/03 14:02:41;;;;;;;6.30;3.63;;;25.60;99.90;;;;;;5012575;28;20032;-73
2022/06/03 14:05:14;;;;;;;10.38;4.28;;;25.50;99.90;;;;;;5028935;28;20029;-73
2022/06/03 14:07:53;;;;;;;3.90;2.60;;;25.50;99.90;;;;;;5013616;28;20030;-73
2022/06/03 14:10:22;;;;;;;6.53;3.17;;;25.60;99.90;;;;;;5012025;28;20026;-73
2022/06/03 14:19:38;;;;;;;8.30;3.28;;;25.50;99.90;;;;;;5012867;28;20132;-73
2022/06/03 14:22:30;;;;;;;6.85;3.72;;;25.50;99.90;;;;;;5012893;28;20026;-73
2022/06/03 14:25:12;;;;;;;6.90;3.50;;;25.50;99.90;;;;;;5012437;28;20029;-73
2022/06/03 14:28:01;;;;;;;5.28;3.35;;;25.40;99.90;;;;;;5012053;28;20057;-73
2022/06/03 14:30:41;;;;;;;7.15;3.03;;;25.40;99.90;;;;;;5010575;28;20021;-73
2022/06/03 14:33:09;;;;;;;13.68;3.65;;;25.30;99.90;;;;;;5011674;28;20112;-73